Terminal Aerodrome Forecast
Issued by NWS

Home | Current Version | Previous Version | Text Only | Print | Product List | Glossary On
Versions: 1 2 3 4 5 6 7 8 9 10 11 12 13 14 15 16
000
FTUS42 KTAE 011700
TAFECP
TAF
KECP 011734Z 0118/0218 06008KT 5SM BR OVC007
     FM020600 00000KT 1/2SM FG OVC004
     FM021600 09003KT 5SM BR OVC007=

USA.gov is the U.S. government's official web portal to all federal, state and local government web resources and services.